OKPHM LOWI-LSZR
Flight info
| Callsign | OKPHM |
|---|---|
| Flight time | 0h 25m |
| Altitude | 24000 |
| Route | MOGTI P66 KPT |
| Aircraft | E55P/M-SBDFGHJ2RWY/LB2 |
Departure
| Time | 2026-05-06 18:11 |
|---|---|
| Airport | Innsbruck Airport (LOWI) |
Arrival
| Time | 2026-05-06 18:36 |
|---|---|
| Airport | Sankt Gallen Altenrhein Airport (LSZR) |
| Time | Latitude | Longitude | Altitude | Speed | Heading |
|---|---|---|---|---|---|
| 2026-05-06 17:59 | 47.25917 | 11.35364 | 1893 ft | 0 kts | 263° |
| 2026-05-06 18:04 | 47.25915 | 11.35350 | 1893 ft | 3 kts | 256° |
| 2026-05-06 18:05 | 47.25908 | 11.35322 | 1893 ft | 1 kts | 235° |
| 2026-05-06 18:05 | 47.25905 | 11.35308 | 1893 ft | 5 kts | 273° |
| 2026-05-06 18:05 | 47.25939 | 11.35287 | 1893 ft | 0 kts | 350° |
| 2026-05-06 18:05 | 47.25941 | 11.35286 | 1893 ft | 0 kts | 350° |
| 2026-05-06 18:06 | 47.25944 | 11.35285 | 1893 ft | 0 kts | 349° |
| 2026-05-06 18:06 | 47.25946 | 11.35285 | 1893 ft | 0 kts | 349° |
| 2026-05-06 18:06 | 47.25948 | 11.35284 | 1893 ft | 0 kts | 349° |
| 2026-05-06 18:06 | 47.25949 | 11.35284 | 1893 ft | 0 kts | 349° |
| 2026-05-06 18:08 | 47.25972 | 11.35279 | 1893 ft | 6 kts | 350° |
| 2026-05-06 18:09 | 47.25973 | 11.35278 | 1893 ft | 0 kts | 350° |
| 2026-05-06 18:09 | 47.26029 | 11.35265 | 1893 ft | 15 kts | 352° |
| 2026-05-06 18:09 | 47.26110 | 11.35234 | 1893 ft | 6 kts | 257° |
| 2026-05-06 18:09 | 47.26109 | 11.35232 | 1893 ft | 0 kts | 258° |
| 2026-05-06 18:10 | 47.26088 | 11.35049 | 1896 ft | 55 kts | 260° |
| 2026-05-06 18:10 | 47.25984 | 11.34091 | 1907 ft | 129 kts | 254° |
| 2026-05-06 18:11 | 47.25833 | 11.32638 | 2182 ft | 159 kts | 260° |
| 2026-05-06 18:11 | 47.25669 | 11.30916 | 2707 ft | 188 kts | 253° |
| 2026-05-06 18:11 | 47.25450 | 11.28902 | 3224 ft | 215 kts | 256° |
| 2026-05-06 18:11 | 47.25370 | 11.26629 | 3996 ft | 241 kts | 277° |
| 2026-05-06 18:12 | 47.26010 | 11.24234 | 4829 ft | 263 kts | 288° |
| 2026-05-06 18:12 | 47.26748 | 11.21669 | 5616 ft | 282 kts | 288° |
| 2026-05-06 18:12 | 47.27536 | 11.18969 | 6490 ft | 297 kts | 289° |
| 2026-05-06 18:12 | 47.28371 | 11.16141 | 7392 ft | 308 kts | 289° |
| 2026-05-06 18:13 | 47.29223 | 11.13212 | 8267 ft | 319 kts | 289° |
| 2026-05-06 18:13 | 47.30092 | 11.10212 | 9142 ft | 327 kts | 289° |
| 2026-05-06 18:13 | 47.30555 | 11.06993 | 10012 ft | 325 kts | 264° |
| 2026-05-06 18:13 | 47.30484 | 11.05690 | 10369 ft | 326 kts | 262° |
| 2026-05-06 18:14 | 47.30261 | 11.00276 | 11779 ft | 335 kts | 264° |
| 2026-05-06 18:14 | 47.30127 | 10.96867 | 12656 ft | 339 kts | 264° |
| 2026-05-06 18:14 | 47.29997 | 10.93413 | 13530 ft | 341 kts | 264° |
| 2026-05-06 18:14 | 47.29864 | 10.89922 | 14418 ft | 343 kts | 264° |
| 2026-05-06 18:15 | 47.29792 | 10.86427 | 15272 ft | 346 kts | 272° |
| 2026-05-06 18:15 | 47.30550 | 10.83035 | 15716 ft | 365 kts | 295° |
| 2026-05-06 18:15 | 47.32278 | 10.80214 | 15779 ft | 372 kts | 316° |
| 2026-05-06 18:15 | 47.34219 | 10.77801 | 15801 ft | 364 kts | 314° |
| 2026-05-06 18:16 | 47.36117 | 10.75344 | 15804 ft | 365 kts | 313° |
| 2026-05-06 18:16 | 47.38020 | 10.72833 | 15804 ft | 374 kts | 313° |
| 2026-05-06 18:16 | 47.40115 | 10.70458 | 15801 ft | 382 kts | 321° |
| 2026-05-06 18:16 | 47.42275 | 10.68248 | 15801 ft | 379 kts | 320° |
| 2026-05-06 18:17 | 47.44434 | 10.66048 | 15801 ft | 376 kts | 320° |
| 2026-05-06 18:17 | 47.46613 | 10.63826 | 15801 ft | 374 kts | 320° |
| 2026-05-06 18:17 | 47.48732 | 10.61664 | 15802 ft | 372 kts | 320° |
| 2026-05-06 18:17 | 47.50842 | 10.59511 | 15800 ft | 367 kts | 320° |
| 2026-05-06 18:18 | 47.52913 | 10.57384 | 16036 ft | 354 kts | 320° |
| 2026-05-06 18:18 | 47.54904 | 10.55350 | 15862 ft | 336 kts | 320° |
| 2026-05-06 18:18 | 47.56747 | 10.53460 | 15845 ft | 314 kts | 320° |
| 2026-05-06 18:18 | 47.58534 | 10.51615 | 15847 ft | 313 kts | 320° |
| 2026-05-06 18:19 | 47.60323 | 10.49763 | 15848 ft | 315 kts | 320° |
| 2026-05-06 18:19 | 47.62147 | 10.47874 | 15848 ft | 317 kts | 320° |
| 2026-05-06 18:19 | 47.63939 | 10.46019 | 15847 ft | 319 kts | 320° |
| 2026-05-06 18:19 | 47.65767 | 10.44125 | 15847 ft | 321 kts | 320° |
| 2026-05-06 18:20 | 47.67585 | 10.42239 | 15847 ft | 322 kts | 320° |
| 2026-05-06 18:20 | 47.69441 | 10.40314 | 15847 ft | 323 kts | 320° |
| 2026-05-06 18:20 | 47.71277 | 10.38407 | 15847 ft | 324 kts | 320° |
| 2026-05-06 18:20 | 47.72873 | 10.36131 | 15840 ft | 314 kts | 299° |
| 2026-05-06 18:21 | 47.73456 | 10.33080 | 15849 ft | 311 kts | 271° |
| 2026-05-06 18:21 | 47.73013 | 10.29958 | 15859 ft | 314 kts | 255° |
| 2026-05-06 18:21 | 47.72363 | 10.26847 | 15680 ft | 314 kts | 255° |
| 2026-05-06 18:21 | 47.71696 | 10.23850 | 15177 ft | 300 kts | 254° |
| 2026-05-06 18:22 | 47.71035 | 10.20983 | 14675 ft | 289 kts | 253° |
| 2026-05-06 18:22 | 47.70396 | 10.18224 | 14175 ft | 279 kts | 253° |
| 2026-05-06 18:22 | 47.69765 | 10.15559 | 13676 ft | 272 kts | 253° |
| 2026-05-06 18:22 | 47.69134 | 10.12957 | 13175 ft | 266 kts | 252° |
| 2026-05-06 18:23 | 47.68505 | 10.10392 | 12669 ft | 260 kts | 252° |
| 2026-05-06 18:23 | 47.67891 | 10.07903 | 12139 ft | 257 kts | 252° |
| 2026-05-06 18:23 | 47.67292 | 10.05484 | 11529 ft | 258 kts | 252° |
| 2026-05-06 18:23 | 47.66669 | 10.02975 | 10899 ft | 258 kts | 251° |
| 2026-05-06 18:24 | 47.66046 | 10.00466 | 10270 ft | 258 kts | 251° |
| 2026-05-06 18:24 | 47.65431 | 9.98006 | 9651 ft | 258 kts | 251° |
| 2026-05-06 18:24 | 47.64813 | 9.95511 | 9026 ft | 257 kts | 250° |
| 2026-05-06 18:24 | 47.64195 | 9.93055 | 8407 ft | 257 kts | 250° |
| 2026-05-06 18:25 | 47.63571 | 9.90560 | 7774 ft | 257 kts | 249° |
| 2026-05-06 18:25 | 47.62963 | 9.88139 | 7407 ft | 247 kts | 250° |
| 2026-05-06 18:25 | 47.62388 | 9.85856 | 7348 ft | 227 kts | 249° |
| 2026-05-06 18:25 | 47.61853 | 9.83728 | 7302 ft | 216 kts | 249° |
| 2026-05-06 18:26 | 47.61317 | 9.81607 | 6836 ft | 224 kts | 249° |
| 2026-05-06 18:26 | 47.60774 | 9.79433 | 6336 ft | 226 kts | 249° |
| 2026-05-06 18:26 | 47.60228 | 9.77234 | 5835 ft | 229 kts | 251° |
| 2026-05-06 18:26 | 47.59747 | 9.74966 | 5346 ft | 231 kts | 251° |
| 2026-05-06 18:27 | 47.59272 | 9.72711 | 4932 ft | 228 kts | 251° |
| 2026-05-06 18:27 | 47.58666 | 9.70652 | 4845 ft | 212 kts | 253° |
| 2026-05-06 18:27 | 47.58317 | 9.68589 | 4856 ft | 199 kts | 253° |
| 2026-05-06 18:27 | 47.57957 | 9.66698 | 4843 ft | 188 kts | 251° |
| 2026-05-06 18:28 | 47.57594 | 9.64888 | 4846 ft | 179 kts | 251° |
| 2026-05-06 18:28 | 47.57238 | 9.63130 | 4845 ft | 177 kts | 251° |
| 2026-05-06 18:28 | 47.56878 | 9.61405 | 4854 ft | 175 kts | 250° |
| 2026-05-06 18:28 | 47.56522 | 9.59665 | 4850 ft | 174 kts | 252° |
| 2026-05-06 18:29 | 47.56164 | 9.57967 | 4854 ft | 172 kts | 252° |
| 2026-05-06 18:29 | 47.55813 | 9.56278 | 4856 ft | 170 kts | 252° |
| 2026-05-06 18:29 | 47.55465 | 9.54618 | 4849 ft | 169 kts | 252° |
| 2026-05-06 18:29 | 47.55124 | 9.53008 | 4959 ft | 161 kts | 250° |
| 2026-05-06 18:30 | 47.54793 | 9.51438 | 4966 ft | 159 kts | 251° |
| 2026-05-06 18:30 | 47.54469 | 9.49865 | 4972 ft | 158 kts | 251° |
| 2026-05-06 18:30 | 47.54140 | 9.48314 | 4978 ft | 157 kts | 250° |
| 2026-05-06 18:30 | 47.53817 | 9.46783 | 4976 ft | 156 kts | 250° |
| 2026-05-06 18:31 | 47.53486 | 9.45255 | 4977 ft | 155 kts | 251° |
| 2026-05-06 18:31 | 47.53175 | 9.43784 | 4964 ft | 145 kts | 250° |
| 2026-05-06 18:31 | 47.52864 | 9.42413 | 4983 ft | 134 kts | 250° |
| 2026-05-06 18:31 | 47.52577 | 9.41160 | 4961 ft | 124 kts | 251° |
| 2026-05-06 18:32 | 47.52314 | 9.40008 | 4979 ft | 113 kts | 249° |
| 2026-05-06 18:32 | 47.52079 | 9.38950 | 4978 ft | 105 kts | 251° |
| 2026-05-06 18:32 | 47.51589 | 9.38254 | 4976 ft | 100 kts | 200° |
| 2026-05-06 18:32 | 47.50880 | 9.38461 | 4966 ft | 115 kts | 155° |
| 2026-05-06 18:33 | 47.50381 | 9.39497 | 4605 ft | 142 kts | 104° |
| 2026-05-06 18:33 | 47.50412 | 9.41005 | 4067 ft | 159 kts | 69° |
| 2026-05-06 18:33 | 47.50627 | 9.42673 | 3621 ft | 164 kts | 89° |
| 2026-05-06 18:33 | 47.50224 | 9.44070 | 3808 ft | 137 kts | 117° |
| 2026-05-06 18:34 | 47.49824 | 9.45229 | 3720 ft | 123 kts | 110° |
| 2026-05-06 18:34 | 47.49587 | 9.46453 | 3379 ft | 130 kts | 99° |
| 2026-05-06 18:34 | 47.49397 | 9.47761 | 2982 ft | 134 kts | 99° |
| 2026-05-06 18:34 | 47.49241 | 9.49177 | 2442 ft | 144 kts | 95° |
| 2026-05-06 18:35 | 47.49090 | 9.50566 | 2186 ft | 133 kts | 99° |
| 2026-05-06 18:35 | 47.48952 | 9.51859 | 1924 ft | 124 kts | 97° |
| 2026-05-06 18:35 | 47.48819 | 9.53090 | 1676 ft | 118 kts | 98° |
| 2026-05-06 18:35 | 47.48700 | 9.54248 | 1489 ft | 110 kts | 98° |
| 2026-05-06 18:36 | 47.48585 | 9.55321 | 1316 ft | 99 kts | 98° |
| 2026-05-06 18:36 | 47.48497 | 9.56166 | 1313 ft | 58 kts | 100° |
| 2026-05-06 18:36 | 47.48438 | 9.56709 | 1310 ft | 40 kts | 99° |
| 2026-05-06 18:36 | 47.48414 | 9.56949 | 1309 ft | 17 kts | 99° |
| 2026-05-06 18:37 | 47.48442 | 9.57069 | 1309 ft | 6 kts | 8° |
| 2026-05-06 18:37 | 47.48478 | 9.57076 | 1309 ft | 4 kts | 9° |
| 2026-05-06 18:37 | 47.48512 | 9.57083 | 1309 ft | 7 kts | 8° |
| 2026-05-06 18:37 | 47.48562 | 9.57023 | 1309 ft | 14 kts | 280° |
| 2026-05-06 18:38 | 47.48576 | 9.56884 | 1309 ft | 12 kts | 281° |
| 2026-05-06 18:38 | 47.48596 | 9.56782 | 1309 ft | 8 kts | 320° |
| 2026-05-06 18:38 | 47.48636 | 9.56792 | 1309 ft | 1 kts | 124° |
| 2026-05-06 18:38 | 47.48618 | 9.56799 | 1309 ft | 4 kts | 155° |
| 2026-05-06 18:39 | 47.48607 | 9.56803 | 1309 ft | 0 kts | 223° |
| 2026-05-06 18:39 | 47.48607 | 9.56802 | 1309 ft | 0 kts | 221° |